sensor_id;sensor_type;location;lat;lon;timestamp;P1;durP1;ratioP1;P2;durP2;ratioP2
83263;SDS011;73156;50.988;11.034;2023-12-20T00:00:38;54.40;;;30.23;;
83263;SDS011;73156;50.988;11.034;2023-12-20T00:03:03;54.38;;;32.08;;
83263;SDS011;73156;50.988;11.034;2023-12-20T00:05:29;55.95;;;31.88;;
83263;SDS011;73156;50.988;11.034;2023-12-20T00:07:57;54.58;;;32.65;;
83263;SDS011;73156;50.988;11.034;2023-12-20T00:10:22;59.25;;;33.28;;
83263;SDS011;73156;50.988;11.034;2023-12-20T00:12:47;51.97;;;30.83;;
83263;SDS011;73156;50.988;11.034;2023-12-20T00:15:12;54.07;;;31.27;;
83263;SDS011;73156;50.988;11.034;2023-12-20T00:17:38;53.75;;;31.00;;
83263;SDS011;73156;50.988;11.034;2023-12-20T00:20:03;54.47;;;30.93;;
83263;SDS011;73156;50.988;11.034;2023-12-20T00:22:28;54.33;;;30.90;;
83263;SDS011;73156;50.988;11.034;2023-12-20T00:24:54;51.97;;;30.45;;
83263;SDS011;73156;50.988;11.034;2023-12-20T00:27:19;52.33;;;30.13;;
83263;SDS011;73156;50.988;11.034;2023-12-20T00:29:44;47.47;;;29.13;;
83263;SDS011;73156;50.988;11.034;2023-12-20T00:32:12;50.80;;;29.10;;
83263;SDS011;73156;50.988;11.034;2023-12-20T00:34:38;50.22;;;29.08;;
83263;SDS011;73156;50.988;11.034;2023-12-20T00:37:03;50.97;;;30.67;;
83263;SDS011;73156;50.988;11.034;2023-12-20T00:39:28;49.03;;;29.70;;
83263;SDS011;73156;50.988;11.034;2023-12-20T00:41:54;48.47;;;29.70;;
83263;SDS011;73156;50.988;11.034;2023-12-20T00:44:19;45.27;;;26.97;;
83263;SDS011;73156;50.988;11.034;2023-12-20T00:46:44;51.67;;;29.23;;
83263;SDS011;73156;50.988;11.034;2023-12-20T00:49:09;45.93;;;28.90;;
83263;SDS011;73156;50.988;11.034;2023-12-20T00:51:35;52.00;;;29.00;;
83263;SDS011;73156;50.988;11.034;2023-12-20T00:54:00;52.50;;;28.85;;
83263;SDS011;73156;50.988;11.034;2023-12-20T00:56:25;50.67;;;29.70;;
83263;SDS011;73156;50.988;11.034;2023-12-20T00:58:50;48.67;;;28.40;;
83263;SDS011;73156;50.988;11.034;2023-12-20T01:01:16;45.72;;;28.48;;
83263;SDS011;73156;50.988;11.034;2023-12-20T01:03:42;52.50;;;28.80;;
83263;SDS011;73156;50.988;11.034;2023-12-20T01:06:07;48.72;;;27.65;;
83263;SDS011;73156;50.988;11.034;2023-12-20T01:08:32;51.77;;;28.37;;
83263;SDS011;73156;50.988;11.034;2023-12-20T01:11:00;47.60;;;29.60;;
83263;SDS011;73156;50.988;11.034;2023-12-20T01:13:25;46.20;;;28.60;;
83263;SDS011;73156;50.988;11.034;2023-12-20T01:15:50;49.03;;;28.87;;
83263;SDS011;73156;50.988;11.034;2023-12-20T01:18:15;51.87;;;29.13;;
83263;SDS011;73156;50.988;11.034;2023-12-20T01:20:41;51.50;;;29.07;;
83263;SDS011;73156;50.988;11.034;2023-12-20T01:23:06;48.38;;;29.13;;
83263;SDS011;73156;50.988;11.034;2023-12-20T01:25:31;48.13;;;28.23;;
83263;SDS011;73156;50.988;11.034;2023-12-20T01:27:56;48.10;;;28.48;;
83263;SDS011;73156;50.988;11.034;2023-12-20T01:30:22;46.20;;;28.13;;
83263;SDS011;73156;50.988;11.034;2023-12-20T01:32:47;46.37;;;28.73;;
83263;SDS011;73156;50.988;11.034;2023-12-20T01:35:12;49.83;;;28.30;;
83263;SDS011;73156;50.988;11.034;2023-12-20T01:37:38;46.95;;;28.38;;
83263;SDS011;73156;50.988;11.034;2023-12-20T01:40:03;45.35;;;27.52;;
83263;SDS011;73156;50.988;11.034;2023-12-20T01:42:29;49.33;;;27.80;;
83263;SDS011;73156;50.988;11.034;2023-12-20T01:44:54;50.87;;;30.27;;
83263;SDS011;73156;50.988;11.034;2023-12-20T01:47:20;46.63;;;28.67;;
83263;SDS011;73156;50.988;11.034;2023-12-20T01:49:46;45.10;;;26.38;;
83263;SDS011;73156;50.988;11.034;2023-12-20T01:52:11;48.88;;;28.75;;
83263;SDS011;73156;50.988;11.034;2023-12-20T01:54:37;49.75;;;28.75;;
83263;SDS011;73156;50.988;11.034;2023-12-20T01:57:04;47.67;;;28.23;;
83263;SDS011;73156;50.988;11.034;2023-12-20T02:01:56;48.50;;;26.57;;
83263;SDS011;73156;50.988;11.034;2023-12-20T02:04:21;42.78;;;26.63;;
83263;SDS011;73156;50.988;11.034;2023-12-20T02:06:47;49.95;;;27.80;;
83263;SDS011;73156;50.988;11.034;2023-12-20T02:09:14;46.92;;;28.13;;
83263;SDS011;73156;50.988;11.034;2023-12-20T02:11:40;47.03;;;28.02;;
83263;SDS011;73156;50.988;11.034;2023-12-20T02:14:05;48.03;;;28.13;;
83263;SDS011;73156;50.988;11.034;2023-12-20T02:16:30;44.67;;;27.08;;
83263;SDS011;73156;50.988;11.034;2023-12-20T02:18:56;44.92;;;26.77;;
83263;SDS011;73156;50.988;11.034;2023-12-20T02:21:33;47.35;;;29.70;;
83263;SDS011;73156;50.988;11.034;2023-12-20T02:24:01;48.83;;;26.90;;
83263;SDS011;73156;50.988;11.034;2023-12-20T02:26:27;44.83;;;26.87;;
83263;SDS011;73156;50.988;11.034;2023-12-20T02:28:52;44.95;;;27.17;;
83263;SDS011;73156;50.988;11.034;2023-12-20T02:31:20;44.93;;;27.07;;
83263;SDS011;73156;50.988;11.034;2023-12-20T02:33:47;46.30;;;27.55;;
83263;SDS011;73156;50.988;11.034;2023-12-20T02:36:12;42.83;;;25.17;;
83263;SDS011;73156;50.988;11.034;2023-12-20T02:38:37;42.10;;;25.77;;
83263;SDS011;73156;50.988;11.034;2023-12-20T02:41:03;42.97;;;25.57;;
83263;SDS011;73156;50.988;11.034;2023-12-20T02:43:28;44.70;;;25.20;;
83263;SDS011;73156;50.988;11.034;2023-12-20T02:45:53;43.27;;;26.67;;
83263;SDS011;73156;50.988;11.034;2023-12-20T02:48:18;43.73;;;25.13;;
83263;SDS011;73156;50.988;11.034;2023-12-20T02:50:44;43.50;;;25.67;;
83263;SDS011;73156;50.988;11.034;2023-12-20T02:53:11;41.25;;;24.42;;
83263;SDS011;73156;50.988;11.034;2023-12-20T02:55:36;43.13;;;25.25;;
83263;SDS011;73156;50.988;11.034;2023-12-20T02:58:02;42.03;;;24.53;;
83263;SDS011;73156;50.988;11.034;2023-12-20T03:00:27;43.63;;;25.80;;
83263;SDS011;73156;50.988;11.034;2023-12-20T03:02:52;39.00;;;23.95;;
83263;SDS011;73156;50.988;11.034;2023-12-20T03:05:18;41.23;;;24.40;;
83263;SDS011;73156;50.988;11.034;2023-12-20T03:07:43;38.92;;;22.80;;
83263;SDS011;73156;50.988;11.034;2023-12-20T03:10:08;39.78;;;23.52;;
83263;SDS011;73156;50.988;11.034;2023-12-20T03:12:34;37.45;;;22.85;;
83263;SDS011;73156;50.988;11.034;2023-12-20T03:14:59;37.80;;;22.98;;
83263;SDS011;73156;50.988;11.034;2023-12-20T03:17:25;35.50;;;22.13;;
83263;SDS011;73156;50.988;11.034;2023-12-20T03:19:50;40.23;;;22.37;;
83263;SDS011;73156;50.988;11.034;2023-12-20T03:22:15;37.00;;;22.80;;
83263;SDS011;73156;50.988;11.034;2023-12-20T03:24:40;40.17;;;24.13;;
83263;SDS011;73156;50.988;11.034;2023-12-20T03:27:05;35.93;;;22.43;;
83263;SDS011;73156;50.988;11.034;2023-12-20T03:29:31;38.30;;;23.27;;
83263;SDS011;73156;50.988;11.034;2023-12-20T03:31:56;37.70;;;22.03;;
83263;SDS011;73156;50.988;11.034;2023-12-20T03:34:21;40.47;;;23.10;;
83263;SDS011;73156;50.988;11.034;2023-12-20T03:36:46;35.00;;;21.83;;
83263;SDS011;73156;50.988;11.034;2023-12-20T03:39:12;33.10;;;21.80;;
83263;SDS011;73156;50.988;11.034;2023-12-20T03:41:38;34.65;;;21.80;;
83263;SDS011;73156;50.988;11.034;2023-12-20T03:44:03;32.13;;;20.00;;
83263;SDS011;73156;50.988;11.034;2023-12-20T03:46:28;33.67;;;20.88;;
83263;SDS011;73156;50.988;11.034;2023-12-20T03:48:54;35.13;;;20.77;;
83263;SDS011;73156;50.988;11.034;2023-12-20T03:51:19;35.07;;;19.40;;
83263;SDS011;73156;50.988;11.034;2023-12-20T03:53:44;33.67;;;19.83;;
83263;SDS011;73156;50.988;11.034;2023-12-20T03:56:09;33.10;;;19.73;;
83263;SDS011;73156;50.988;11.034;2023-12-20T03:58:35;32.87;;;19.67;;
83263;SDS011;73156;50.988;11.034;2023-12-20T04:01:00;30.58;;;19.63;;
83263;SDS011;73156;50.988;11.034;2023-12-20T04:03:25;29.90;;;18.50;;
83263;SDS011;73156;50.988;11.034;2023-12-20T04:05:50;32.23;;;18.77;;
83263;SDS011;73156;50.988;11.034;2023-12-20T04:08:16;31.83;;;18.50;;
83263;SDS011;73156;50.988;11.034;2023-12-20T04:10:41;34.83;;;19.33;;
83263;SDS011;73156;50.988;11.034;2023-12-20T04:13:06;28.97;;;17.63;;
83263;SDS011;73156;50.988;11.034;2023-12-20T04:15:31;30.00;;;18.27;;
83263;SDS011;73156;50.988;11.034;2023-12-20T04:17:57;30.23;;;18.07;;
83263;SDS011;73156;50.988;11.034;2023-12-20T04:20:22;29.63;;;18.23;;
83263;SDS011;73156;50.988;11.034;2023-12-20T04:22:47;28.07;;;17.23;;
83263;SDS011;73156;50.988;11.034;2023-12-20T04:25:12;28.70;;;17.17;;
83263;SDS011;73156;50.988;11.034;2023-12-20T04:27:38;28.30;;;17.23;;
83263;SDS011;73156;50.988;11.034;2023-12-20T04:30:03;25.80;;;17.53;;
83263;SDS011;73156;50.988;11.034;2023-12-20T04:32:29;28.55;;;16.40;;
83263;SDS011;73156;50.988;11.034;2023-12-20T04:34:54;27.97;;;17.20;;
83263;SDS011;73156;50.988;11.034;2023-12-20T04:37:19;25.58;;;16.55;;
83263;SDS011;73156;50.988;11.034;2023-12-20T04:39:45;26.40;;;15.37;;
83263;SDS011;73156;50.988;11.034;2023-12-20T04:42:10;25.08;;;15.43;;
83263;SDS011;73156;50.988;11.034;2023-12-20T04:44:35;29.07;;;16.87;;
83263;SDS011;73156;50.988;11.034;2023-12-20T04:47:00;24.23;;;14.83;;
83263;SDS011;73156;50.988;11.034;2023-12-20T04:49:26;25.30;;;15.05;;
83263;SDS011;73156;50.988;11.034;2023-12-20T04:51:51;25.63;;;15.80;;
83263;SDS011;73156;50.988;11.034;2023-12-20T04:54:16;24.97;;;14.53;;
83263;SDS011;73156;50.988;11.034;2023-12-20T04:56:42;23.73;;;15.00;;
83263;SDS011;73156;50.988;11.034;2023-12-20T04:59:07;22.07;;;14.20;;
83263;SDS011;73156;50.988;11.034;2023-12-20T05:01:32;23.37;;;15.00;;
83263;SDS011;73156;50.988;11.034;2023-12-20T05:03:57;25.13;;;14.30;;
83263;SDS011;73156;50.988;11.034;2023-12-20T05:06:23;23.33;;;14.55;;
83263;SDS011;73156;50.988;11.034;2023-12-20T05:08:48;23.37;;;14.70;;
83263;SDS011;73156;50.988;11.034;2023-12-20T05:11:13;19.83;;;12.53;;
83263;SDS011;73156;50.988;11.034;2023-12-20T05:13:40;20.98;;;13.30;;
83263;SDS011;73156;50.988;11.034;2023-12-20T05:16:05;22.00;;;13.50;;
83263;SDS011;73156;50.988;11.034;2023-12-20T05:18:30;22.70;;;14.07;;
83263;SDS011;73156;50.988;11.034;2023-12-20T05:20:56;20.60;;;13.23;;
83263;SDS011;73156;50.988;11.034;2023-12-20T05:23:21;23.15;;;13.77;;
83263;SDS011;73156;50.988;11.034;2023-12-20T05:25:46;21.23;;;13.17;;
83263;SDS011;73156;50.988;11.034;2023-12-20T05:28:12;20.27;;;13.17;;
83263;SDS011;73156;50.988;11.034;2023-12-20T05:30:37;19.77;;;12.30;;
83263;SDS011;73156;50.988;11.034;2023-12-20T05:33:02;20.30;;;13.20;;
83263;SDS011;73156;50.988;11.034;2023-12-20T05:35:28;19.58;;;12.77;;
83263;SDS011;73156;50.988;11.034;2023-12-20T05:37:53;20.17;;;12.60;;
83263;SDS011;73156;50.988;11.034;2023-12-20T05:40:18;19.77;;;11.97;;
83263;SDS011;73156;50.988;11.034;2023-12-20T05:42:43;19.37;;;12.13;;
83263;SDS011;73156;50.988;11.034;2023-12-20T05:45:09;18.50;;;11.85;;
83263;SDS011;73156;50.988;11.034;2023-12-20T05:47:34;19.98;;;12.38;;
83263;SDS011;73156;50.988;11.034;2023-12-20T05:49:59;17.58;;;10.77;;
83263;SDS011;73156;50.988;11.034;2023-12-20T05:52:25;17.23;;;10.93;;
83263;SDS011;73156;50.988;11.034;2023-12-20T05:54:50;18.97;;;12.23;;
83263;SDS011;73156;50.988;11.034;2023-12-20T05:57:15;18.07;;;11.30;;
83263;SDS011;73156;50.988;11.034;2023-12-20T05:59:40;17.83;;;11.47;;
83263;SDS011;73156;50.988;11.034;2023-12-20T06:02:06;19.20;;;11.80;;
83263;SDS011;73156;50.988;11.034;2023-12-20T06:04:31;17.75;;;11.35;;
83263;SDS011;73156;50.988;11.034;2023-12-20T06:06:57;19.15;;;11.90;;
83263;SDS011;73156;50.988;11.034;2023-12-20T06:09:22;18.93;;;11.43;;
83263;SDS011;73156;50.988;11.034;2023-12-20T06:11:48;19.00;;;11.50;;
83263;SDS011;73156;50.988;11.034;2023-12-20T06:14:13;18.17;;;11.35;;
83263;SDS011;73156;50.988;11.034;2023-12-20T06:16:39;16.07;;;10.07;;
83263;SDS011;73156;50.988;11.034;2023-12-20T06:19:04;16.97;;;10.10;;
83263;SDS011;73156;50.988;11.034;2023-12-20T06:21:29;15.65;;;10.27;;
83263;SDS011;73156;50.988;11.034;2023-12-20T06:23:54;16.87;;;10.60;;
83263;SDS011;73156;50.988;11.034;2023-12-20T06:26:20;17.80;;;10.73;;
83263;SDS011;73156;50.988;11.034;2023-12-20T06:28:45;16.03;;;9.90;;
83263;SDS011;73156;50.988;11.034;2023-12-20T06:31:10;15.13;;;9.48;;
83263;SDS011;73156;50.988;11.034;2023-12-20T06:33:36;14.90;;;9.43;;
83263;SDS011;73156;50.988;11.034;2023-12-20T06:36:01;15.37;;;10.03;;
83263;SDS011;73156;50.988;11.034;2023-12-20T06:38:26;14.87;;;9.17;;
83263;SDS011;73156;50.988;11.034;2023-12-20T06:40:51;14.97;;;9.27;;
83263;SDS011;73156;50.988;11.034;2023-12-20T06:43:17;15.13;;;10.43;;
83263;SDS011;73156;50.988;11.034;2023-12-20T06:45:42;16.43;;;10.30;;
83263;SDS011;73156;50.988;11.034;2023-12-20T06:48:07;14.87;;;9.53;;
83263;SDS011;73156;50.988;11.034;2023-12-20T06:50:33;13.83;;;9.20;;
83263;SDS011;73156;50.988;11.034;2023-12-20T06:52:58;14.53;;;9.43;;
83263;SDS011;73156;50.988;11.034;2023-12-20T06:55:23;16.13;;;9.73;;
83263;SDS011;73156;50.988;11.034;2023-12-20T06:57:49;14.15;;;9.10;;
83263;SDS011;73156;50.988;11.034;2023-12-20T07:00:14;15.53;;;9.07;;
83263;SDS011;73156;50.988;11.034;2023-12-20T07:02:40;13.85;;;8.77;;
83263;SDS011;73156;50.988;11.034;2023-12-20T07:05:05;15.52;;;9.13;;
83263;SDS011;73156;50.988;11.034;2023-12-20T07:07:31;15.35;;;9.30;;
83263;SDS011;73156;50.988;11.034;2023-12-20T07:09:56;14.30;;;9.37;;
83263;SDS011;73156;50.988;11.034;2023-12-20T07:12:21;15.20;;;8.88;;
83263;SDS011;73156;50.988;11.034;2023-12-20T07:14:47;14.27;;;8.67;;
83263;SDS011;73156;50.988;11.034;2023-12-20T07:17:12;15.27;;;9.68;;
83263;SDS011;73156;50.988;11.034;2023-12-20T07:19:40;15.15;;;9.10;;
83263;SDS011;73156;50.988;11.034;2023-12-20T07:22:05;14.63;;;9.47;;
83263;SDS011;73156;50.988;11.034;2023-12-20T07:24:31;12.52;;;8.07;;
83263;SDS011;73156;50.988;11.034;2023-12-20T07:26:56;15.07;;;9.48;;
83263;SDS011;73156;50.988;11.034;2023-12-20T07:29:21;14.98;;;9.23;;
83263;SDS011;73156;50.988;11.034;2023-12-20T07:31:47;14.80;;;9.30;;
83263;SDS011;73156;50.988;11.034;2023-12-20T07:34:12;14.07;;;8.95;;
83263;SDS011;73156;50.988;11.034;2023-12-20T07:36:37;15.00;;;9.23;;
83263;SDS011;73156;50.988;11.034;2023-12-20T07:39:03;13.35;;;8.90;;
83263;SDS011;73156;50.988;11.034;2023-12-20T07:41:28;16.25;;;9.45;;
83263;SDS011;73156;50.988;11.034;2023-12-20T07:43:53;14.18;;;9.45;;
83263;SDS011;73156;50.988;11.034;2023-12-20T07:46:19;14.50;;;9.23;;
83263;SDS011;73156;50.988;11.034;2023-12-20T07:48:47;14.32;;;9.02;;
83263;SDS011;73156;50.988;11.034;2023-12-20T07:51:12;15.70;;;9.47;;
83263;SDS011;73156;50.988;11.034;2023-12-20T07:53:38;14.45;;;8.95;;
83263;SDS011;73156;50.988;11.034;2023-12-20T07:56:12;15.55;;;8.45;;
83263;SDS011;73156;50.988;11.034;2023-12-20T07:58:39;14.70;;;8.65;;
83263;SDS011;73156;50.988;11.034;2023-12-20T08:01:04;14.57;;;9.60;;
83263;SDS011;73156;50.988;11.034;2023-12-20T08:03:29;13.00;;;8.33;;
83263;SDS011;73156;50.988;11.034;2023-12-20T08:05:54;16.07;;;9.37;;
83263;SDS011;73156;50.988;11.034;2023-12-20T08:08:20;14.82;;;9.57;;
83263;SDS011;73156;50.988;11.034;2023-12-20T08:10:45;15.53;;;9.47;;
83263;SDS011;73156;50.988;11.034;2023-12-20T08:13:10;17.10;;;9.80;;
83263;SDS011;73156;50.988;11.034;2023-12-20T08:15:35;16.10;;;10.10;;
83263;SDS011;73156;50.988;11.034;2023-12-20T08:18:02;14.38;;;9.45;;
83263;SDS011;73156;50.988;11.034;2023-12-20T08:20:28;13.45;;;9.57;;
83263;SDS011;73156;50.988;11.034;2023-12-20T08:22:53;16.10;;;9.53;;
83263;SDS011;73156;50.988;11.034;2023-12-20T08:25:18;15.23;;;9.70;;
83263;SDS011;73156;50.988;11.034;2023-12-20T08:27:43;14.70;;;9.77;;
83263;SDS011;73156;50.988;11.034;2023-12-20T08:30:09;16.70;;;9.90;;
83263;SDS011;73156;50.988;11.034;2023-12-20T08:32:34;17.13;;;10.07;;
83263;SDS011;73156;50.988;11.034;2023-12-20T08:35:00;15.77;;;9.90;;
83263;SDS011;73156;50.988;11.034;2023-12-20T08:37:25;16.50;;;10.27;;
83263;SDS011;73156;50.988;11.034;2023-12-20T08:39:50;18.60;;;10.85;;
83263;SDS011;73156;50.988;11.034;2023-12-20T08:42:16;16.45;;;10.02;;
83263;SDS011;73156;50.988;11.034;2023-12-20T08:44:41;16.08;;;9.48;;
83263;SDS011;73156;50.988;11.034;2023-12-20T08:47:06;14.63;;;9.80;;
83263;SDS011;73156;50.988;11.034;2023-12-20T08:49:32;18.05;;;11.18;;
83263;SDS011;73156;50.988;11.034;2023-12-20T08:51:57;17.23;;;10.98;;
83263;SDS011;73156;50.988;11.034;2023-12-20T08:54:22;18.73;;;11.27;;
83263;SDS011;73156;50.988;11.034;2023-12-20T08:56:48;18.02;;;11.32;;
83263;SDS011;73156;50.988;11.034;2023-12-20T08:59:13;19.90;;;12.17;;
83263;SDS011;73156;50.988;11.034;2023-12-20T09:01:39;20.33;;;11.77;;
83263;SDS011;73156;50.988;11.034;2023-12-20T09:04:04;20.87;;;11.83;;
83263;SDS011;73156;50.988;11.034;2023-12-20T09:06:31;18.77;;;11.48;;
83263;SDS011;73156;50.988;11.034;2023-12-20T09:08:57;19.23;;;11.65;;
83263;SDS011;73156;50.988;11.034;2023-12-20T09:11:22;21.23;;;11.90;;
83263;SDS011;73156;50.988;11.034;2023-12-20T09:13:48;19.20;;;11.57;;
83263;SDS011;73156;50.988;11.034;2023-12-20T09:16:13;22.13;;;12.70;;
83263;SDS011;73156;50.988;11.034;2023-12-20T09:21:05;20.73;;;13.30;;
83263;SDS011;73156;50.988;11.034;2023-12-20T09:23:31;19.93;;;12.90;;
83263;SDS011;73156;50.988;11.034;2023-12-20T09:25:56;22.30;;;13.13;;
83263;SDS011;73156;50.988;11.034;2023-12-20T09:28:21;21.87;;;12.67;;
83263;SDS011;73156;50.988;11.034;2023-12-20T09:30:46;22.57;;;13.83;;
83263;SDS011;73156;50.988;11.034;2023-12-20T09:33:12;22.48;;;12.90;;
83263;SDS011;73156;50.988;11.034;2023-12-20T09:35:38;21.23;;;13.40;;
83263;SDS011;73156;50.988;11.034;2023-12-20T09:38:03;22.90;;;14.37;;
83263;SDS011;73156;50.988;11.034;2023-12-20T09:40:28;22.98;;;13.95;;
83263;SDS011;73156;50.988;11.034;2023-12-20T09:42:56;22.85;;;14.20;;
83263;SDS011;73156;50.988;11.034;2023-12-20T09:45:22;24.17;;;14.50;;
83263;SDS011;73156;50.988;11.034;2023-12-20T09:47:49;23.20;;;14.18;;
83263;SDS011;73156;50.988;11.034;2023-12-20T09:50:15;21.70;;;13.55;;
83263;SDS011;73156;50.988;11.034;2023-12-20T09:52:44;24.33;;;14.35;;
83263;SDS011;73156;50.988;11.034;2023-12-20T09:55:12;23.20;;;15.23;;
83263;SDS011;73156;50.988;11.034;2023-12-20T09:57:39;23.65;;;15.10;;
83263;SDS011;73156;50.988;11.034;2023-12-20T10:00:05;23.52;;;14.60;;
83263;SDS011;73156;50.988;11.034;2023-12-20T10:02:31;26.95;;;15.48;;
83263;SDS011;73156;50.988;11.034;2023-12-20T10:07:25;20.20;;;13.25;;
83263;SDS011;73156;50.988;11.034;2023-12-20T10:09:51;23.67;;;14.80;;
83263;SDS011;73156;50.988;11.034;2023-12-20T10:12:19;23.55;;;14.15;;
83263;SDS011;73156;50.988;11.034;2023-12-20T10:14:44;24.97;;;14.83;;
83263;SDS011;73156;50.988;11.034;2023-12-20T10:17:10;26.07;;;15.77;;
83263;SDS011;73156;50.988;11.034;2023-12-20T10:19:37;25.08;;;14.77;;
83263;SDS011;73156;50.988;11.034;2023-12-20T10:22:04;27.77;;;16.65;;
83263;SDS011;73156;50.988;11.034;2023-12-20T10:24:30;26.33;;;16.20;;
83263;SDS011;73156;50.988;11.034;2023-12-20T10:27:02;23.48;;;14.48;;
83263;SDS011;73156;50.988;11.034;2023-12-20T10:29:31;25.98;;;16.15;;
83263;SDS011;73156;50.988;11.034;2023-12-20T10:31:58;26.75;;;16.08;;
83263;SDS011;73156;50.988;11.034;2023-12-20T10:34:23;26.00;;;15.17;;
83263;SDS011;73156;50.988;11.034;2023-12-20T10:36:49;22.95;;;15.13;;
83263;SDS011;73156;50.988;11.034;2023-12-20T10:39:14;25.85;;;15.57;;
83263;SDS011;73156;50.988;11.034;2023-12-20T10:41:40;27.27;;;15.85;;
83263;SDS011;73156;50.988;11.034;2023-12-20T10:44:07;27.52;;;15.90;;
83263;SDS011;73156;50.988;11.034;2023-12-20T10:46:35;23.63;;;15.68;;
83263;SDS011;73156;50.988;11.034;2023-12-20T10:49:04;30.52;;;17.77;;
83263;SDS011;73156;50.988;11.034;2023-12-20T10:51:30;25.80;;;16.45;;
83263;SDS011;73156;50.988;11.034;2023-12-20T10:53:56;28.75;;;17.15;;
83263;SDS011;73156;50.988;11.034;2023-12-20T10:56:21;25.90;;;16.52;;
83263;SDS011;73156;50.988;11.034;2023-12-20T10:58:48;25.73;;;15.85;;
83263;SDS011;73156;50.988;11.034;2023-12-20T11:01:15;27.33;;;17.23;;
83263;SDS011;73156;50.988;11.034;2023-12-20T11:03:46;28.08;;;17.65;;
83263;SDS011;73156;50.988;11.034;2023-12-20T11:09:00;27.48;;;16.15;;
83263;SDS011;73156;50.988;11.034;2023-12-20T11:16:36;26.42;;;16.35;;
83263;SDS011;73156;50.988;11.034;2023-12-20T11:19:05;26.75;;;17.25;;
83263;SDS011;73156;50.988;11.034;2023-12-20T11:21:30;24.80;;;16.23;;
83263;SDS011;73156;50.988;11.034;2023-12-20T11:23:56;26.90;;;16.27;;
83263;SDS011;73156;50.988;11.034;2023-12-20T11:26:27;24.73;;;15.73;;
83263;SDS011;73156;50.988;11.034;2023-12-20T11:29:28;25.50;;;16.60;;
83263;SDS011;73156;50.988;11.034;2023-12-20T11:31:57;26.85;;;16.40;;
83263;SDS011;73156;50.988;11.034;2023-12-20T11:34:22;25.95;;;17.02;;
83263;SDS011;73156;50.988;11.034;2023-12-20T11:36:59;27.92;;;17.00;;
83263;SDS011;73156;50.988;11.034;2023-12-20T11:39:25;25.73;;;16.27;;
83263;SDS011;73156;50.988;11.034;2023-12-20T11:41:52;24.65;;;15.40;;
83263;SDS011;73156;50.988;11.034;2023-12-20T11:44:19;26.75;;;16.75;;
83263;SDS011;73156;50.988;11.034;2023-12-20T11:46:45;29.77;;;16.67;;
83263;SDS011;73156;50.988;11.034;2023-12-20T11:49:11;25.13;;;15.50;;
83263;SDS011;73156;50.988;11.034;2023-12-20T11:51:40;29.90;;;17.77;;
83263;SDS011;73156;50.988;11.034;2023-12-20T11:54:06;30.05;;;16.48;;
83263;SDS011;73156;50.988;11.034;2023-12-20T11:56:31;28.70;;;17.77;;
83263;SDS011;73156;50.988;11.034;2023-12-20T11:58:57;28.65;;;17.45;;
83263;SDS011;73156;50.988;11.034;2023-12-20T12:01:22;31.97;;;16.57;;
83263;SDS011;73156;50.988;11.034;2023-12-20T12:03:47;26.00;;;15.70;;
83263;SDS011;73156;50.988;11.034;2023-12-20T12:06:12;30.33;;;17.33;;
83263;SDS011;73156;50.988;11.034;2023-12-20T12:08:38;27.73;;;16.73;;
83263;SDS011;73156;50.988;11.034;2023-12-20T12:11:04;32.20;;;17.52;;
83263;SDS011;73156;50.988;11.034;2023-12-20T12:13:29;30.88;;;17.55;;
83263;SDS011;73156;50.988;11.034;2023-12-20T12:15:55;29.95;;;17.77;;
83263;SDS011;73156;50.988;11.034;2023-12-20T12:18:20;31.60;;;16.98;;
83263;SDS011;73156;50.988;11.034;2023-12-20T12:20:46;27.42;;;16.75;;
83263;SDS011;73156;50.988;11.034;2023-12-20T12:23:11;29.30;;;18.02;;
83263;SDS011;73156;50.988;11.034;2023-12-20T12:25:36;28.17;;;16.77;;
83263;SDS011;73156;50.988;11.034;2023-12-20T12:28:04;29.17;;;18.23;;
83263;SDS011;73156;50.988;11.034;2023-12-20T12:30:30;26.30;;;17.35;;
83263;SDS011;73156;50.988;11.034;2023-12-20T12:32:55;31.13;;;17.75;;
83263;SDS011;73156;50.988;11.034;2023-12-20T12:35:22;27.85;;;17.00;;
83263;SDS011;73156;50.988;11.034;2023-12-20T12:37:47;30.55;;;18.00;;
83263;SDS011;73156;50.988;11.034;2023-12-20T12:40:13;28.70;;;17.13;;
83263;SDS011;73156;50.988;11.034;2023-12-20T12:42:42;30.35;;;16.95;;
83263;SDS011;73156;50.988;11.034;2023-12-20T12:45:09;27.52;;;17.45;;
83263;SDS011;73156;50.988;11.034;2023-12-20T12:47:36;28.33;;;17.92;;
83263;SDS011;73156;50.988;11.034;2023-12-20T12:50:02;26.95;;;17.15;;
83263;SDS011;73156;50.988;11.034;2023-12-20T12:52:27;34.33;;;18.00;;
83263;SDS011;73156;50.988;11.034;2023-12-20T12:54:53;27.33;;;17.17;;
83263;SDS011;73156;50.988;11.034;2023-12-20T12:57:18;27.92;;;16.40;;
83263;SDS011;73156;50.988;11.034;2023-12-20T12:59:44;25.45;;;16.08;;
83263;SDS011;73156;50.988;11.034;2023-12-20T13:02:13;29.15;;;17.02;;
83263;SDS011;73156;50.988;11.034;2023-12-20T13:04:39;27.95;;;17.25;;
83263;SDS011;73156;50.988;11.034;2023-12-20T13:07:04;26.45;;;17.40;;
83263;SDS011;73156;50.988;11.034;2023-12-20T13:09:30;27.38;;;16.35;;
83263;SDS011;73156;50.988;11.034;2023-12-20T13:11:55;30.85;;;17.63;;
83263;SDS011;73156;50.988;11.034;2023-12-20T13:14:21;27.50;;;17.95;;
83263;SDS011;73156;50.988;11.034;2023-12-20T13:16:46;28.77;;;17.58;;
83263;SDS011;73156;50.988;11.034;2023-12-20T13:19:12;27.03;;;17.77;;
83263;SDS011;73156;50.988;11.034;2023-12-20T13:21:37;25.73;;;17.47;;
83263;SDS011;73156;50.988;11.034;2023-12-20T13:24:02;28.60;;;17.87;;
83263;SDS011;73156;50.988;11.034;2023-12-20T13:26:28;28.60;;;17.60;;
83263;SDS011;73156;50.988;11.034;2023-12-20T13:28:54;31.48;;;17.67;;
83263;SDS011;73156;50.988;11.034;2023-12-20T13:31:20;25.42;;;17.27;;
83263;SDS011;73156;50.988;11.034;2023-12-20T13:33:45;25.70;;;16.67;;
83263;SDS011;73156;50.988;11.034;2023-12-20T13:36:10;25.38;;;16.80;;
83263;SDS011;73156;50.988;11.034;2023-12-20T13:38:36;29.77;;;17.90;;
83263;SDS011;73156;50.988;11.034;2023-12-20T13:41:01;28.73;;;17.30;;
83263;SDS011;73156;50.988;11.034;2023-12-20T13:43:26;26.90;;;16.70;;
83263;SDS011;73156;50.988;11.034;2023-12-20T13:45:52;27.37;;;16.87;;
83263;SDS011;73156;50.988;11.034;2023-12-20T13:48:17;29.38;;;18.30;;
83263;SDS011;73156;50.988;11.034;2023-12-20T13:50:43;26.10;;;16.35;;
83263;SDS011;73156;50.988;11.034;2023-12-20T13:53:08;25.02;;;17.08;;
83263;SDS011;73156;50.988;11.034;2023-12-20T13:55:33;35.40;;;18.80;;
83263;SDS011;73156;50.988;11.034;2023-12-20T13:57:58;26.83;;;17.73;;
83263;SDS011;73156;50.988;11.034;2023-12-20T14:00:24;29.08;;;18.50;;
83263;SDS011;73156;50.988;11.034;2023-12-20T14:02:49;26.33;;;16.13;;
83263;SDS011;73156;50.988;11.034;2023-12-20T14:05:15;28.87;;;17.20;;
83263;SDS011;73156;50.988;11.034;2023-12-20T14:07:44;27.25;;;17.35;;
83263;SDS011;73156;50.988;11.034;2023-12-20T14:10:13;24.73;;;16.52;;
83263;SDS011;73156;50.988;11.034;2023-12-20T14:12:39;28.77;;;16.60;;
83263;SDS011;73156;50.988;11.034;2023-12-20T14:15:04;27.80;;;17.45;;
83263;SDS011;73156;50.988;11.034;2023-12-20T14:17:35;28.02;;;17.67;;